Bookmark and Share
Track history (hours):
 

Nissan Maru

Last reported at 2014-Apr-20 10:14 UTC. Time now 2014-Apr-24 22:25 UTC.
Position N 34°07' E 134°47'.

Length 108 m; draft 5.2 m.

Type: Cargo ship. MMSI: 431400593.

NotesDate/timePositionNaut miles runAvg speedWind from/ knotsBaromVisibWave heightAir tempDewpointWater temp
2014-Apr-20 10:14N 34°07' E 134°47'1112.7
2014-Apr-20 09:20N 33°58' E 134°56'23510.8
2014-Apr-19 11:33N 34°59' E 139°30'1313.1
2014-Apr-19 10:34N 35°08' E 139°43'1111.1
2014-Apr-19 09:34N 35°19' E 139°43'1010.3
2014-Apr-19 08:33N 35°29' E 139°44'0 0.1
2014-Apr-19 07:32N 35°29' E 139°44'0 0.0
2014-Apr-19 06:32N 35°29' E 139°44'0 0.0
2014-Apr-19 05:32N 35°29' E 139°44'0 0.0
2014-Apr-19 04:29N 35°29' E 139°44'0 0.0
2014-Apr-19 03:32N 35°29' E 139°44'0 0.0
2014-Apr-19 02:32N 35°29' E 139°44'0 0.0
2014-Apr-19 01:32N 35°29' E 139°44'0 0.0
2014-Apr-19 00:32N 35°29' E 139°44'0 0.0
2014-Apr-18 23:32N 35°29' E 139°44'0 0.0
2014-Apr-18 22:32N 35°29' E 139°44'0 0.0
2014-Apr-18 21:32N 35°29' E 139°44'0 0.0
2014-Apr-18 20:32N 35°29' E 139°44'5 4.8
2014-Apr-18 19:34N 35°25' E 139°46'0 0.2
2014-Apr-18 18:29N 35°24' E 139°45'0 0.0
2014-Apr-18 17:32N 35°24' E 139°45'0 0.0
2014-Apr-18 16:32N 35°24' E 139°45'0 0.0
2014-Apr-18 15:29N 35°24' E 139°45'0 0.0
2014-Apr-18 14:32N 35°24' E 139°45'0 0.3
2014-Apr-18 13:34N 35°24' E 139°45'9 9.2
2014-Apr-18 12:34N 35°15' E 139°47'1010.2
2014-Apr-18 11:33N 35°05' E 139°43'1110.7
2014-Apr-18 10:33N 34°59' E 139°33'  
2014-Apr-15 14:23N 34°46' E 139°12'10 5.5
2014-Apr-15 12:32N 34°53' E 139°22'1111.5
2014-Apr-15 11:34N 34°59' E 139°33'1111.2
2014-Apr-15 10:34N 35°07' E 139°43'1110.7
2014-Apr-15 09:34N 35°18' E 139°44'1110.5
2014-Apr-15 08:34N 35°28' E 139°47'1 0.5
2014-Apr-15 07:34N 35°29' E 139°47'0 0.0
2014-Apr-15 06:34N 35°29' E 139°47'0 0.0
2014-Apr-15 05:34N 35°29' E 139°47'2 1.0
2014-Apr-15 03:33N 35°29' E 139°44'0 0.0
2014-Apr-15 02:33N 35°29' E 139°44'0 0.0
2014-Apr-15 01:33N 35°29' E 139°44'0 0.0
2014-Apr-15 00:33N 35°29' E 139°44'0 0.0
2014-Apr-14 23:30N 35°29' E 139°44'0 0.0
2014-Apr-14 22:33N 35°29' E 139°44'0 0.0
2014-Apr-14 21:33N 35°29' E 139°44'0 0.0
2014-Apr-14 20:33N 35°29' E 139°44'0 0.0
2014-Apr-14 19:33N 35°29' E 139°44'0 0.0
2014-Apr-14 18:33N 35°29' E 139°44'0 0.0
2014-Apr-14 17:32N 35°29' E 139°44'0 0.0
2014-Apr-14 16:32N 35°29' E 139°44'0 0.0
2014-Apr-14 15:32N 35°29' E 139°44'0 0.0
2014-Apr-14 14:32N 35°29' E 139°44'0 0.0
2014-Apr-14 13:32N 35°29' E 139°44'0 0.0
2014-Apr-14 11:32N 35°29' E 139°44'0 0.0
2014-Apr-14 10:32N 35°29' E 139°44'4 3.8
2014-Apr-14 09:33N 35°26' E 139°47'1010.4
2014-Apr-14 08:33N 35°16' E 139°47'1211.5
2014-Apr-14 07:33N 35°05' E 139°42'1212.0
2014-Apr-14 06:33N 34°57' E 139°31'  
2014-Apr-11 12:07N 35°03' E 139°37'712.6
2014-Apr-11 11:33N 35°08' E 139°43'1211.6
2014-Apr-11 10:33N 35°20' E 139°43'9 9.4
2014-Apr-11 09:33N 35°29' E 139°44'0 0.0
2014-Apr-11 08:31N 35°29' E 139°44'0 0.0
2014-Apr-11 07:31N 35°29' E 139°44'0 0.0
2014-Apr-11 06:31N 35°29' E 139°44'0 0.0
2014-Apr-11 05:31N 35°29' E 139°44'0 0.0
2014-Apr-11 04:31N 35°29' E 139°44'0 0.0
2014-Apr-11 03:31N 35°29' E 139°44'0 0.0
2014-Apr-11 02:31N 35°29' E 139°44'0 0.0
2014-Apr-11 01:31N 35°29' E 139°44'0 0.0
2014-Apr-11 00:31N 35°29' E 139°44'0 0.0
2014-Apr-10 23:31N 35°29' E 139°44'0 0.0
2014-Apr-10 22:31N 35°29' E 139°44'0 0.0
2014-Apr-10 21:33N 35°29' E 139°44'0 0.0
2014-Apr-10 20:33N 35°29' E 139°44'0 0.0
2014-Apr-10 19:33N 35°29' E 139°44'0 0.0
2014-Apr-10 18:33N 35°29' E 139°44'0 0.0
2014-Apr-10 17:33N 35°29' E 139°44'0 0.0
2014-Apr-10 16:33N 35°29' E 139°44'0 0.0
2014-Apr-10 15:33N 35°29' E 139°44'0 0.0
2014-Apr-10 14:33N 35°29' E 139°44'0 0.0
2014-Apr-10 13:33N 35°29' E 139°44'0 0.0
2014-Apr-10 12:33N 35°29' E 139°44'1 1.3
2014-Apr-10 11:33N 35°28' E 139°45'5 4.5
2014-Apr-10 10:30N 35°23' E 139°44'  

Dump ship's entire track history

sailing weather and tide predictions

Nissan Maru — JG5485 — position and weather